Terminal Aerodrome Forecast
Issued by NWS

Home | Current Version | Previous Version | Text Only | Print | Product List | Glossary On
Versions: 1 2 3 4 5 6 7 8 9 10 11 12 13 14 15 16 17 18 19 20 21 22 23 24
000
FTUS44 KHGX 231859 AAB
TAFCXO
TAF AMD
KCXO 231859Z 2319/2418 17013G21KT P6SM SKC
     FM232100 17011G20KT P6SM SKC
     FM240200 16009KT P6SM SCT012
     FM240900 19003KT 4SM BR SCT007
      TEMPO 2410/2412 2SM BR OVC005
     FM241400 23004KT P6SM SCT015
     FM241700 28008KT P6SM SKC=

USA.gov is the U.S. government's official web portal to all federal, state and local government web resources and services.